sensor_id;sensor_type;location;lat;lon;timestamp;P1;durP1;ratioP1;P2;durP2;ratioP2
28762;SDS011;15918;51.270;6.522;2023-04-01T00:01:54;3.55;;;1.05;;
28762;SDS011;15918;51.270;6.522;2023-04-01T00:04:20;4.80;;;1.25;;
28762;SDS011;15918;51.270;6.522;2023-04-01T00:06:46;4.78;;;0.95;;
28762;SDS011;15918;51.270;6.522;2023-04-01T00:09:12;3.72;;;1.48;;
28762;SDS011;15918;51.270;6.522;2023-04-01T00:11:39;2.97;;;1.38;;
28762;SDS011;15918;51.270;6.522;2023-04-01T00:14:05;2.28;;;1.00;;
28762;SDS011;15918;51.270;6.522;2023-04-01T00:16:31;5.10;;;1.20;;
28762;SDS011;15918;51.270;6.522;2023-04-01T00:18:57;3.65;;;1.30;;
28762;SDS011;15918;51.270;6.522;2023-04-01T00:21:22;2.92;;;1.20;;
28762;SDS011;15918;51.270;6.522;2023-04-01T00:23:49;1.75;;;1.17;;
28762;SDS011;15918;51.270;6.522;2023-04-01T00:26:15;3.15;;;1.20;;
28762;SDS011;15918;51.270;6.522;2023-04-01T00:28:44;3.55;;;1.10;;
28762;SDS011;15918;51.270;6.522;2023-04-01T00:31:10;5.40;;;1.10;;
28762;SDS011;15918;51.270;6.522;2023-04-01T00:33:36;2.78;;;1.20;;
28762;SDS011;15918;51.270;6.522;2023-04-01T00:36:09;4.45;;;1.35;;
28762;SDS011;15918;51.270;6.522;2023-04-01T00:38:36;3.90;;;0.90;;
28762;SDS011;15918;51.270;6.522;2023-04-01T00:41:02;2.30;;;1.20;;
28762;SDS011;15918;51.270;6.522;2023-04-01T00:43:28;2.53;;;1.08;;
28762;SDS011;15918;51.270;6.522;2023-04-01T00:45:55;4.10;;;1.20;;
28762;SDS011;15918;51.270;6.522;2023-04-01T00:48:25;3.28;;;0.95;;
28762;SDS011;15918;51.270;6.522;2023-04-01T00:51:09;2.17;;;1.00;;
28762;SDS011;15918;51.270;6.522;2023-04-01T00:53:41;2.85;;;1.17;;
28762;SDS011;15918;51.270;6.522;2023-04-01T00:58:38;3.65;;;1.05;;
28762;SDS011;15918;51.270;6.522;2023-04-01T01:01:06;3.75;;;1.08;;
28762;SDS011;15918;51.270;6.522;2023-04-01T01:03:33;8.52;;;1.55;;
28762;SDS011;15918;51.270;6.522;2023-04-01T01:06:06;1.65;;;0.80;;
28762;SDS011;15918;51.270;6.522;2023-04-01T01:14:15;3.70;;;1.10;;
28762;SDS011;15918;51.270;6.522;2023-04-01T01:16:49;3.33;;;1.20;;
28762;SDS011;15918;51.270;6.522;2023-04-01T01:22:19;3.70;;;1.45;;
28762;SDS011;15918;51.270;6.522;2023-04-01T01:27:54;2.35;;;0.90;;
28762;SDS011;15918;51.270;6.522;2023-04-01T01:36:28;5.32;;;1.17;;
28762;SDS011;15918;51.270;6.522;2023-04-01T01:38:59;5.65;;;1.20;;
28762;SDS011;15918;51.270;6.522;2023-04-01T01:41:27;2.90;;;0.98;;
28762;SDS011;15918;51.270;6.522;2023-04-01T01:43:55;2.17;;;1.00;;
28762;SDS011;15918;51.270;6.522;2023-04-01T01:46:23;2.90;;;1.15;;
28762;SDS011;15918;51.270;6.522;2023-04-01T01:48:51;2.03;;;0.80;;
28762;SDS011;15918;51.270;6.522;2023-04-01T01:51:18;3.70;;;0.98;;
28762;SDS011;15918;51.270;6.522;2023-04-01T01:53:46;1.42;;;0.90;;
28762;SDS011;15918;51.270;6.522;2023-04-01T01:56:12;4.70;;;1.05;;
28762;SDS011;15918;51.270;6.522;2023-04-01T01:58:45;3.65;;;1.20;;
28762;SDS011;15918;51.270;6.522;2023-04-01T02:01:17;1.77;;;0.60;;
28762;SDS011;15918;51.270;6.522;2023-04-01T02:03:48;2.78;;;0.70;;
28762;SDS011;15918;51.270;6.522;2023-04-01T02:06:16;1.13;;;0.65;;
28762;SDS011;15918;51.270;6.522;2023-04-01T02:11:18;2.95;;;1.00;;
28762;SDS011;15918;51.270;6.522;2023-04-01T02:13:53;2.20;;;0.82;;
28762;SDS011;15918;51.270;6.522;2023-04-01T02:16:25;3.40;;;1.20;;
28762;SDS011;15918;51.270;6.522;2023-04-01T02:19:11;3.28;;;0.95;;
28762;SDS011;15918;51.270;6.522;2023-04-01T02:21:38;3.00;;;0.93;;
28762;SDS011;15918;51.270;6.522;2023-04-01T02:24:06;2.80;;;1.00;;
28762;SDS011;15918;51.270;6.522;2023-04-01T02:26:35;4.03;;;1.00;;
28762;SDS011;15918;51.270;6.522;2023-04-01T02:29:01;3.05;;;1.23;;
28762;SDS011;15918;51.270;6.522;2023-04-01T02:31:28;4.00;;;1.13;;
28762;SDS011;15918;51.270;6.522;2023-04-01T02:33:55;2.33;;;0.80;;
28762;SDS011;15918;51.270;6.522;2023-04-01T02:36:22;3.97;;;1.20;;
28762;SDS011;15918;51.270;6.522;2023-04-01T02:38:48;2.70;;;0.98;;
28762;SDS011;15918;51.270;6.522;2023-04-01T02:41:16;2.53;;;1.02;;
28762;SDS011;15918;51.270;6.522;2023-04-01T02:43:41;1.77;;;0.90;;
28762;SDS011;15918;51.270;6.522;2023-04-01T02:46:07;2.72;;;0.70;;
28762;SDS011;15918;51.270;6.522;2023-04-01T02:48:33;3.35;;;0.98;;
28762;SDS011;15918;51.270;6.522;2023-04-01T02:50:59;4.85;;;0.90;;
28762;SDS011;15918;51.270;6.522;2023-04-01T02:53:25;2.35;;;0.90;;
28762;SDS011;15918;51.270;6.522;2023-04-01T02:55:50;1.77;;;0.77;;
28762;SDS011;15918;51.270;6.522;2023-04-01T02:58:17;1.85;;;0.80;;
28762;SDS011;15918;51.270;6.522;2023-04-01T03:00:43;1.92;;;0.90;;
28762;SDS011;15918;51.270;6.522;2023-04-01T03:03:09;1.83;;;0.80;;
28762;SDS011;15918;51.270;6.522;2023-04-01T03:05:35;2.38;;;1.00;;
28762;SDS011;15918;51.270;6.522;2023-04-01T03:08:01;2.63;;;0.80;;
28762;SDS011;15918;51.270;6.522;2023-04-01T03:10:27;2.00;;;0.70;;
28762;SDS011;15918;51.270;6.522;2023-04-01T03:12:53;1.23;;;0.60;;
28762;SDS011;15918;51.270;6.522;2023-04-01T03:15:18;1.85;;;0.60;;
28762;SDS011;15918;51.270;6.522;2023-04-01T03:17:44;1.85;;;0.70;;
28762;SDS011;15918;51.270;6.522;2023-04-01T03:20:11;0.73;;;0.60;;
28762;SDS011;15918;51.270;6.522;2023-04-01T03:22:37;3.47;;;0.93;;
28762;SDS011;15918;51.270;6.522;2023-04-01T03:25:03;2.28;;;0.90;;
28762;SDS011;15918;51.270;6.522;2023-04-01T03:27:30;2.13;;;0.80;;
28762;SDS011;15918;51.270;6.522;2023-04-01T03:29:55;2.25;;;0.60;;
28762;SDS011;15918;51.270;6.522;2023-04-01T03:32:21;2.78;;;1.27;;
28762;SDS011;15918;51.270;6.522;2023-04-01T03:34:46;0.68;;;0.40;;
28762;SDS011;15918;51.270;6.522;2023-04-01T03:37:12;1.52;;;0.43;;
28762;SDS011;15918;51.270;6.522;2023-04-01T03:39:38;1.48;;;0.40;;
28762;SDS011;15918;51.270;6.522;2023-04-01T03:42:04;2.67;;;0.90;;
28762;SDS011;15918;51.270;6.522;2023-04-01T03:44:31;0.88;;;0.60;;
28762;SDS011;15918;51.270;6.522;2023-04-01T03:46:58;1.60;;;0.57;;
28762;SDS011;15918;51.270;6.522;2023-04-01T03:49:23;1.45;;;0.52;;
28762;SDS011;15918;51.270;6.522;2023-04-01T03:51:49;0.50;;;0.50;;
28762;SDS011;15918;51.270;6.522;2023-04-01T03:54:15;0.93;;;0.70;;
28762;SDS011;15918;51.270;6.522;2023-04-01T03:56:41;1.05;;;0.85;;
28762;SDS011;15918;51.270;6.522;2023-04-01T03:59:07;1.92;;;0.80;;
28762;SDS011;15918;51.270;6.522;2023-04-01T04:01:33;1.55;;;0.80;;
28762;SDS011;15918;51.270;6.522;2023-04-01T04:03:59;1.27;;;0.85;;
28762;SDS011;15918;51.270;6.522;2023-04-01T04:06:25;1.90;;;0.75;;
28762;SDS011;15918;51.270;6.522;2023-04-01T04:08:51;0.85;;;0.70;;
28762;SDS011;15918;51.270;6.522;2023-04-01T04:11:17;0.90;;;0.60;;
28762;SDS011;15918;51.270;6.522;2023-04-01T04:13:44;1.98;;;0.80;;
28762;SDS011;15918;51.270;6.522;2023-04-01T04:16:10;1.80;;;0.85;;
28762;SDS011;15918;51.270;6.522;2023-04-01T04:18:36;3.00;;;0.75;;
28762;SDS011;15918;51.270;6.522;2023-04-01T04:21:02;1.15;;;0.60;;
28762;SDS011;15918;51.270;6.522;2023-04-01T04:23:29;1.17;;;0.80;;
28762;SDS011;15918;51.270;6.522;2023-04-01T04:26:00;3.63;;;1.15;;
28762;SDS011;15918;51.270;6.522;2023-04-01T04:28:26;2.50;;;0.95;;
28762;SDS011;15918;51.270;6.522;2023-04-01T04:30:52;1.67;;;0.70;;
28762;SDS011;15918;51.270;6.522;2023-04-01T04:33:18;3.03;;;0.82;;
28762;SDS011;15918;51.270;6.522;2023-04-01T04:35:45;2.10;;;1.70;;
28762;SDS011;15918;51.270;6.522;2023-04-01T04:38:10;1.17;;;1.00;;
28762;SDS011;15918;51.270;6.522;2023-04-01T04:40:37;2.22;;;0.88;;
28762;SDS011;15918;51.270;6.522;2023-04-01T04:43:03;1.02;;;1.00;;
28762;SDS011;15918;51.270;6.522;2023-04-01T04:45:29;1.42;;;0.98;;
28762;SDS011;15918;51.270;6.522;2023-04-01T04:47:55;1.20;;;1.00;;
28762;SDS011;15918;51.270;6.522;2023-04-01T04:50:21;2.28;;;1.10;;
28762;SDS011;15918;51.270;6.522;2023-04-01T04:52:47;1.63;;;1.02;;
28762;SDS011;15918;51.270;6.522;2023-04-01T04:55:13;1.67;;;1.17;;
28762;SDS011;15918;51.270;6.522;2023-04-01T04:57:39;2.72;;;1.38;;
28762;SDS011;15918;51.270;6.522;2023-04-01T05:00:06;1.65;;;1.23;;
28762;SDS011;15918;51.270;6.522;2023-04-01T05:02:32;1.50;;;1.00;;
28762;SDS011;15918;51.270;6.522;2023-04-01T05:04:58;1.80;;;1.20;;
28762;SDS011;15918;51.270;6.522;2023-04-01T05:07:24;1.88;;;1.23;;
28762;SDS011;15918;51.270;6.522;2023-04-01T05:09:49;1.15;;;1.05;;
28762;SDS011;15918;51.270;6.522;2023-04-01T05:12:15;2.05;;;1.02;;
28762;SDS011;15918;51.270;6.522;2023-04-01T05:14:41;1.27;;;1.10;;
28762;SDS011;15918;51.270;6.522;2023-04-01T05:17:10;1.88;;;1.45;;
28762;SDS011;15918;51.270;6.522;2023-04-01T05:19:36;2.33;;;1.08;;
28762;SDS011;15918;51.270;6.522;2023-04-01T05:22:04;2.50;;;1.17;;
28762;SDS011;15918;51.270;6.522;2023-04-01T05:24:31;4.18;;;1.30;;
28762;SDS011;15918;51.270;6.522;2023-04-01T05:26:57;1.75;;;1.40;;
28762;SDS011;15918;51.270;6.522;2023-04-01T05:29:26;1.77;;;1.67;;
28762;SDS011;15918;51.270;6.522;2023-04-01T05:31:52;1.75;;;1.60;;
28762;SDS011;15918;51.270;6.522;2023-04-01T05:34:17;1.73;;;1.40;;
28762;SDS011;15918;51.270;6.522;2023-04-01T05:36:43;3.40;;;1.67;;
28762;SDS011;15918;51.270;6.522;2023-04-01T05:39:09;3.03;;;1.80;;
28762;SDS011;15918;51.270;6.522;2023-04-01T05:41:35;1.95;;;1.65;;
28762;SDS011;15918;51.270;6.522;2023-04-01T05:44:01;2.50;;;1.88;;
28762;SDS011;15918;51.270;6.522;2023-04-01T05:46:27;1.83;;;1.60;;
28762;SDS011;15918;51.270;6.522;2023-04-01T05:48:53;1.95;;;1.73;;
28762;SDS011;15918;51.270;6.522;2023-04-01T05:51:18;2.15;;;1.58;;
28762;SDS011;15918;51.270;6.522;2023-04-01T05:53:44;3.60;;;1.90;;
28762;SDS011;15918;51.270;6.522;2023-04-01T05:56:10;1.90;;;1.80;;
28762;SDS011;15918;51.270;6.522;2023-04-01T05:58:36;2.15;;;1.92;;
28762;SDS011;15918;51.270;6.522;2023-04-01T06:01:02;3.75;;;1.90;;
28762;SDS011;15918;51.270;6.522;2023-04-01T06:03:29;2.97;;;2.00;;
28762;SDS011;15918;51.270;6.522;2023-04-01T06:05:55;2.20;;;2.00;;
28762;SDS011;15918;51.270;6.522;2023-04-01T06:08:21;6.45;;;2.47;;
28762;SDS011;15918;51.270;6.522;2023-04-01T06:30:44;3.17;;;2.30;;
28762;SDS011;15918;51.270;6.522;2023-04-01T06:46:19;1.77;;;1.67;;
28762;SDS011;15918;51.270;6.522;2023-04-01T06:49:01;1.95;;;1.65;;
28762;SDS011;15918;51.270;6.522;2023-04-01T06:54:10;1.70;;;1.50;;
28762;SDS011;15918;51.270;6.522;2023-04-01T06:56:42;2.17;;;1.70;;
28762;SDS011;15918;51.270;6.522;2023-04-01T06:59:27;1.85;;;1.75;;
28762;SDS011;15918;51.270;6.522;2023-04-01T07:01:55;2.67;;;2.03;;
28762;SDS011;15918;51.270;6.522;2023-04-01T07:04:29;2.40;;;2.20;;
28762;SDS011;15918;51.270;6.522;2023-04-01T07:07:02;2.00;;;1.90;;
28762;SDS011;15918;51.270;6.522;2023-04-01T07:09:48;2.53;;;2.33;;
28762;SDS011;15918;51.270;6.522;2023-04-01T07:15:04;2.17;;;2.08;;
28762;SDS011;15918;51.270;6.522;2023-04-01T07:17:37;2.72;;;2.53;;
28762;SDS011;15918;51.270;6.522;2023-04-01T07:22:56;3.05;;;2.85;;
28762;SDS011;15918;51.270;6.522;2023-04-01T07:25:26;2.95;;;2.75;;
28762;SDS011;15918;51.270;6.522;2023-04-01T07:28:05;3.38;;;3.17;;
28762;SDS011;15918;51.270;6.522;2023-04-01T07:30:51;4.45;;;2.78;;
28762;SDS011;15918;51.270;6.522;2023-04-01T07:36:42;3.60;;;3.30;;
28762;SDS011;15918;51.270;6.522;2023-04-01T07:41:55;3.50;;;3.20;;
28762;SDS011;15918;51.270;6.522;2023-04-01T07:50:02;3.08;;;2.83;;
28762;SDS011;15918;51.270;6.522;2023-04-01T07:52:42;2.53;;;2.33;;
28762;SDS011;15918;51.270;6.522;2023-04-01T08:08:19;3.75;;;3.33;;
28762;SDS011;15918;51.270;6.522;2023-04-01T08:13:56;3.75;;;3.35;;
28762;SDS011;15918;51.270;6.522;2023-04-01T08:21:28;2.50;;;2.40;;
28762;SDS011;15918;51.270;6.522;2023-04-01T08:24:17;2.90;;;2.60;;
28762;SDS011;15918;51.270;6.522;2023-04-01T08:26:56;3.30;;;3.10;;
28762;SDS011;15918;51.270;6.522;2023-04-01T08:32:28;3.80;;;3.50;;
28762;SDS011;15918;51.270;6.522;2023-04-01T08:38:11;4.35;;;3.85;;
28762;SDS011;15918;51.270;6.522;2023-04-01T08:43:40;4.95;;;4.50;;
28762;SDS011;15918;51.270;6.522;2023-04-01T08:53:03;7.18;;;6.55;;
28762;SDS011;15918;51.270;6.522;2023-04-01T08:55:36;8.52;;;7.70;;
28762;SDS011;15918;51.270;6.522;2023-04-01T09:01:32;11.30;;;10.20;;
28762;SDS011;15918;51.270;6.522;2023-04-01T09:34:26;14.25;;;12.57;;
28762;SDS011;15918;51.270;6.522;2023-04-01T09:37:08;19.30;;;16.15;;
28762;SDS011;15918;51.270;6.522;2023-04-01T09:40:23;25.50;;;18.30;;
28762;SDS011;15918;51.270;6.522;2023-04-01T09:43:28;30.48;;;21.23;;
28762;SDS011;15918;51.270;6.522;2023-04-01T09:46:42;28.15;;;19.23;;
28762;SDS011;15918;51.270;6.522;2023-04-01T09:52:01;37.38;;;25.10;;
28762;SDS011;15918;51.270;6.522;2023-04-01T10:08:15;15.95;;;14.20;;
28762;SDS011;15918;51.270;6.522;2023-04-01T10:19:07;14.98;;;12.43;;
28762;SDS011;15918;51.270;6.522;2023-04-01T10:33:13;10.45;;;9.45;;
28762;SDS011;15918;51.270;6.522;2023-04-01T10:36:17;10.45;;;8.80;;
28762;SDS011;15918;51.270;6.522;2023-04-01T10:44:49;12.68;;;11.13;;
28762;SDS011;15918;51.270;6.522;2023-04-01T11:18:30;8.85;;;8.05;;
28762;SDS011;15918;51.270;6.522;2023-04-01T11:38:29;8.98;;;8.27;;
28762;SDS011;15918;51.270;6.522;2023-04-01T11:41:09;8.13;;;7.35;;
28762;SDS011;15918;51.270;6.522;2023-04-01T11:52:26;8.60;;;7.90;;
28762;SDS011;15918;51.270;6.522;2023-04-01T12:03:43;8.90;;;8.13;;
28762;SDS011;15918;51.270;6.522;2023-04-01T12:12:25;10.93;;;9.93;;
28762;SDS011;15918;51.270;6.522;2023-04-01T12:18:00;10.23;;;9.23;;
28762;SDS011;15918;51.270;6.522;2023-04-01T12:20:45;10.20;;;9.30;;
28762;SDS011;15918;51.270;6.522;2023-04-01T12:26:47;11.80;;;9.75;;
28762;SDS011;15918;51.270;6.522;2023-04-01T12:43:27;8.27;;;7.57;;
28762;SDS011;15918;51.270;6.522;2023-04-01T12:46:01;9.48;;;8.55;;
28762;SDS011;15918;51.270;6.522;2023-04-01T12:57:30;7.75;;;7.03;;
28762;SDS011;15918;51.270;6.522;2023-04-01T13:05:51;8.30;;;7.50;;
28762;SDS011;15918;51.270;6.522;2023-04-01T13:25:39;6.22;;;5.63;;
28762;SDS011;15918;51.270;6.522;2023-04-01T13:28:19;10.48;;;6.00;;
28762;SDS011;15918;51.270;6.522;2023-04-01T13:44:45;6.18;;;5.32;;
28762;SDS011;15918;51.270;6.522;2023-04-01T13:47:30;6.10;;;5.20;;
28762;SDS011;15918;51.270;6.522;2023-04-01T13:50:39;5.93;;;4.90;;
28762;SDS011;15918;51.270;6.522;2023-04-01T13:55:39;5.85;;;5.28;;
28762;SDS011;15918;51.270;6.522;2023-04-01T14:11:56;5.50;;;5.00;;
28762;SDS011;15918;51.270;6.522;2023-04-01T14:30:46;5.38;;;4.88;;
28762;SDS011;15918;51.270;6.522;2023-04-01T14:33:29;5.32;;;4.78;;
28762;SDS011;15918;51.270;6.522;2023-04-01T14:36:14;5.60;;;5.10;;
28762;SDS011;15918;51.270;6.522;2023-04-01T14:50:18;4.00;;;3.70;;
28762;SDS011;15918;51.270;6.522;2023-04-01T14:55:34;6.47;;;3.90;;
28762;SDS011;15918;51.270;6.522;2023-04-01T14:58:09;4.95;;;4.47;;
28762;SDS011;15918;51.270;6.522;2023-04-01T15:06:13;3.55;;;3.25;;
28762;SDS011;15918;51.270;6.522;2023-04-01T15:09:16;4.22;;;3.65;;
28762;SDS011;15918;51.270;6.522;2023-04-01T15:12:12;5.13;;;4.47;;
28762;SDS011;15918;51.270;6.522;2023-04-01T15:15:09;3.67;;;3.38;;
28762;SDS011;15918;51.270;6.522;2023-04-01T15:21:02;4.90;;;3.45;;
28762;SDS011;15918;51.270;6.522;2023-04-01T15:23:45;3.50;;;3.20;;
28762;SDS011;15918;51.270;6.522;2023-04-01T15:34:59;15.65;;;9.27;;
28762;SDS011;15918;51.270;6.522;2023-04-01T15:41:02;5.63;;;4.85;;
28762;SDS011;15918;51.270;6.522;2023-04-01T15:43:45;5.57;;;3.92;;
28762;SDS011;15918;51.270;6.522;2023-04-01T15:46:22;5.47;;;3.70;;
28762;SDS011;15918;51.270;6.522;2023-04-01T15:54:25;4.47;;;3.30;;
28762;SDS011;15918;51.270;6.522;2023-04-01T16:02:31;4.38;;;3.78;;
28762;SDS011;15918;51.270;6.522;2023-04-01T16:07:43;4.63;;;4.32;;
28762;SDS011;15918;51.270;6.522;2023-04-01T16:16:00;4.97;;;4.57;;
28762;SDS011;15918;51.270;6.522;2023-04-01T16:18:59;4.57;;;4.18;;
28762;SDS011;15918;51.270;6.522;2023-04-01T16:33:01;4.35;;;4.05;;
28762;SDS011;15918;51.270;6.522;2023-04-01T16:41:49;4.35;;;3.95;;
28762;SDS011;15918;51.270;6.522;2023-04-01T16:44:44;4.53;;;4.13;;
28762;SDS011;15918;51.270;6.522;2023-04-01T16:47:17;4.60;;;4.22;;
28762;SDS011;15918;51.270;6.522;2023-04-01T16:52:35;5.15;;;4.55;;
28762;SDS011;15918;51.270;6.522;2023-04-01T16:55:18;4.65;;;4.25;;
28762;SDS011;15918;51.270;6.522;2023-04-01T16:57:56;4.40;;;4.00;;
28762;SDS011;15918;51.270;6.522;2023-04-01T17:00:27;4.55;;;4.10;;
28762;SDS011;15918;51.270;6.522;2023-04-01T17:03:03;4.95;;;4.45;;
28762;SDS011;15918;51.270;6.522;2023-04-01T17:05:38;4.07;;;3.78;;
28762;SDS011;15918;51.270;6.522;2023-04-01T17:08:29;3.90;;;3.60;;
28762;SDS011;15918;51.270;6.522;2023-04-01T17:11:21;6.00;;;3.10;;
28762;SDS011;15918;51.270;6.522;2023-04-01T17:13:57;3.53;;;3.22;;
28762;SDS011;15918;51.270;6.522;2023-04-01T17:19:23;3.83;;;3.53;;
28762;SDS011;15918;51.270;6.522;2023-04-01T17:21:57;4.03;;;3.63;;
28762;SDS011;15918;51.270;6.522;2023-04-01T17:32:51;3.92;;;3.63;;
28762;SDS011;15918;51.270;6.522;2023-04-01T17:38:22;4.15;;;3.55;;
28762;SDS011;15918;51.270;6.522;2023-04-01T17:47:04;3.50;;;3.20;;
28762;SDS011;15918;51.270;6.522;2023-04-01T17:50:01;4.18;;;3.80;;
28762;SDS011;15918;51.270;6.522;2023-04-01T17:52:47;3.45;;;3.15;;
28762;SDS011;15918;51.270;6.522;2023-04-01T17:55:26;3.80;;;3.20;;
28762;SDS011;15918;51.270;6.522;2023-04-01T17:58:41;3.88;;;3.53;;
28762;SDS011;15918;51.270;6.522;2023-04-01T18:01:05;7.30;;;3.42;;
28762;SDS011;15918;51.270;6.522;2023-04-01T18:06:21;3.80;;;3.50;;
28762;SDS011;15918;51.270;6.522;2023-04-01T18:09:17;4.45;;;3.67;;
28762;SDS011;15918;51.270;6.522;2023-04-01T18:17:52;3.63;;;3.30;;
28762;SDS011;15918;51.270;6.522;2023-04-01T18:25:47;3.65;;;3.35;;
28762;SDS011;15918;51.270;6.522;2023-04-01T18:30:57;3.65;;;3.35;;
28762;SDS011;15918;51.270;6.522;2023-04-01T18:44:28;4.13;;;3.33;;
28762;SDS011;15918;51.270;6.522;2023-04-01T18:47:18;3.53;;;3.22;;
28762;SDS011;15918;51.270;6.522;2023-04-01T18:52:41;3.50;;;3.20;;
28762;SDS011;15918;51.270;6.522;2023-04-01T18:55:21;4.40;;;4.00;;
28762;SDS011;15918;51.270;6.522;2023-04-01T19:01:11;4.00;;;3.70;;
28762;SDS011;15918;51.270;6.522;2023-04-01T19:06:32;4.53;;;4.13;;
28762;SDS011;15918;51.270;6.522;2023-04-01T19:09:10;3.83;;;3.55;;
28762;SDS011;15918;51.270;6.522;2023-04-01T19:14:39;4.40;;;4.10;;
28762;SDS011;15918;51.270;6.522;2023-04-01T19:17:23;4.65;;;4.25;;
28762;SDS011;15918;51.270;6.522;2023-04-01T19:19:56;5.10;;;4.60;;
28762;SDS011;15918;51.270;6.522;2023-04-01T19:25:30;5.55;;;5.15;;
28762;SDS011;15918;51.270;6.522;2023-04-01T19:36:46;6.78;;;6.18;;
28762;SDS011;15918;51.270;6.522;2023-04-01T19:44:53;6.88;;;6.18;;
28762;SDS011;15918;51.270;6.522;2023-04-01T19:54:01;7.38;;;6.78;;
28762;SDS011;15918;51.270;6.522;2023-04-01T20:01:15;7.47;;;6.80;;
28762;SDS011;15918;51.270;6.522;2023-04-01T20:03:54;6.85;;;6.30;;
28762;SDS011;15918;51.270;6.522;2023-04-01T20:06:33;6.60;;;6.10;;
28762;SDS011;15918;51.270;6.522;2023-04-01T20:11:57;5.78;;;5.38;;
28762;SDS011;15918;51.270;6.522;2023-04-01T20:14:49;5.57;;;5.07;;
28762;SDS011;15918;51.270;6.522;2023-04-01T20:17:38;5.20;;;4.80;;
28762;SDS011;15918;51.270;6.522;2023-04-01T20:27:58;4.05;;;3.75;;
28762;SDS011;15918;51.270;6.522;2023-04-01T20:33:10;3.40;;;3.20;;
28762;SDS011;15918;51.270;6.522;2023-04-01T20:38:35;3.17;;;2.92;;
28762;SDS011;15918;51.270;6.522;2023-04-01T20:41:26;4.72;;;3.22;;
28762;SDS011;15918;51.270;6.522;2023-04-01T20:44:16;3.55;;;3.25;;
28762;SDS011;15918;51.270;6.522;2023-04-01T20:47:10;3.70;;;3.40;;
28762;SDS011;15918;51.270;6.522;2023-04-01T20:49:41;3.47;;;3.17;;
28762;SDS011;15918;51.270;6.522;2023-04-01T20:52:25;3.97;;;3.65;;
28762;SDS011;15918;51.270;6.522;2023-04-01T21:08:56;3.53;;;3.28;;
28762;SDS011;15918;51.270;6.522;2023-04-01T21:14:43;4.28;;;3.88;;
28762;SDS011;15918;51.270;6.522;2023-04-01T21:20:33;4.32;;;3.92;;
28762;SDS011;15918;51.270;6.522;2023-04-01T21:29:06;3.65;;;3.45;;
28762;SDS011;15918;51.270;6.522;2023-04-01T21:34:28;5.47;;;4.88;;
28762;SDS011;15918;51.270;6.522;2023-04-01T21:56:57;4.68;;;4.28;;
28762;SDS011;15918;51.270;6.522;2023-04-01T22:05:29;4.22;;;3.63;;
28762;SDS011;15918;51.270;6.522;2023-04-01T22:10:57;4.45;;;4.05;;
28762;SDS011;15918;51.270;6.522;2023-04-01T22:13:41;4.60;;;4.20;;
28762;SDS011;15918;51.270;6.522;2023-04-01T22:16:32;3.92;;;3.63;;
28762;SDS011;15918;51.270;6.522;2023-04-01T22:19:20;4.22;;;3.40;;
28762;SDS011;15918;51.270;6.522;2023-04-01T22:22:06;3.90;;;3.60;;
28762;SDS011;15918;51.270;6.522;2023-04-01T22:24:49;3.10;;;2.78;;
28762;SDS011;15918;51.270;6.522;2023-04-01T22:27:21;3.63;;;2.60;;
28762;SDS011;15918;51.270;6.522;2023-04-01T22:35:02;2.65;;;2.45;;
28762;SDS011;15918;51.270;6.522;2023-04-01T22:43:06;2.80;;;2.60;;
28762;SDS011;15918;51.270;6.522;2023-04-01T22:48:29;3.78;;;3.53;;
28762;SDS011;15918;51.270;6.522;2023-04-01T22:56:00;4.10;;;3.80;;
28762;SDS011;15918;51.270;6.522;2023-04-01T22:58:30;4.43;;;4.03;;
28762;SDS011;15918;51.270;6.522;2023-04-01T23:01:19;4.10;;;3.70;;
28762;SDS011;15918;51.270;6.522;2023-04-01T23:03:49;4.70;;;4.30;;
28762;SDS011;15918;51.270;6.522;2023-04-01T23:06:19;4.32;;;3.92;;
28762;SDS011;15918;51.270;6.522;2023-04-01T23:08:54;4.85;;;4.35;;
28762;SDS011;15918;51.270;6.522;2023-04-01T23:11:37;4.78;;;4.28;;
28762;SDS011;15918;51.270;6.522;2023-04-01T23:22:34;5.22;;;4.35;;
28762;SDS011;15918;51.270;6.522;2023-04-01T23:25:35;5.47;;;4.88;;
28762;SDS011;15918;51.270;6.522;2023-04-01T23:33:19;6.30;;;4.75;;
28762;SDS011;15918;51.270;6.522;2023-04-01T23:35:56;4.68;;;4.28;;
28762;SDS011;15918;51.270;6.522;2023-04-01T23:38:31;5.47;;;4.95;;
28762;SDS011;15918;51.270;6.522;2023-04-01T23:41:03;5.75;;;4.57;;
28762;SDS011;15918;51.270;6.522;2023-04-01T23:43:31;5.00;;;4.50;;
28762;SDS011;15918;51.270;6.522;2023-04-01T23:46:07;5.53;;;5.00;;
28762;SDS011;15918;51.270;6.522;2023-04-01T23:48:35;5.30;;;4.80;;
28762;SDS011;15918;51.270;6.522;2023-04-01T23:51:05;5.47;;;4.97;;
28762;SDS011;15918;51.270;6.522;2023-04-01T23:56:34;5.45;;;4.72;;
28762;SDS011;15918;51.270;6.522;2023-04-01T23:59:02;6.50;;;4.90;;
